Hobbs, NM (88240)

3:29 PM MDT on August 30, 2015 (GMT -0600)
NW Hobbs NM | | Change Station
CLOSE
Current Station
Personal Weather Station
Location: Hobbs, NM
Elevation: 3637 ft
Nearby Weather Stations

Elev 3637 ft 32.74 °N, 103.15 °W | Updated 5 seconds ago

Clear
Clear
87.5 °F
Feels Like 85 °F
N
5.0
Wind Variable Wind from SSE
Gusts 10.0 mph

Today
High -- | Low -- °F
--% Chance of Precip.
Yesterday
High -- | Low -- °F
Precip. -- in
6:25 AM 7:20 PM
Full, 98% visible
Pressure 30.11 in
Visibility 10.0 miles
Clouds Clear
Heat Index 85 °F
Dew Point 52 °F
Humidity 30%
Rainfall 0.00 in
Snow Depth Not available.
UV 9 out of 12
Pollen 8.50 out of 12
Air Quality Not available.
Flu Activity Not available.
METAR KHOB 302050Z 00000KT 10SM SKC 30/10 A3011
Pressure 30.11 in
Visibility 10.0 miles
Clouds Clear
Heat Index 85 °F
Dew Point 52 °F
Humidity 30%
Rainfall 0.00 in
Snow Depth Not available.
UV 9 out of 12
Pollen 8.50 out of 12
Air Quality Not available.
Flu Activity Not available.
METAR KHOB 302050Z 00000KT 10SM SKC 30/10 A3011

10-Day Weather Forecast

×

Almanac

Astronomy

Aug. 30, 2015 Rise Set
Actual Time
Civil Twilight
Nautical Twilight
Astronomical Twilight
Moon
Length of Visible Light
Length of Day
Tomorrow will be .
, % of the Moon is Illuminated

Today's Extremes

State Highs State Lows

Community

WunderPhotos

Upload Photos

1,851,063 photos uploaded!

WunderBlogs® & News

Nearby

Air Quality

  Air Quality AQ Index Pollutant
Not available.

Snow Depth

Station Depth Elevation

Earthquake Activity

City Distance Mag. Time & Date
Minimum magnitude displayed is 2.5.

Coastal Water Temperatures

Place Temperature

Stations

Nearby Weather Stations

Station Location Temp. Windchill Dew Point Humidity Wind Precip. Elev Updated Type